createdAt,value
2022-08-17T00:00:42.579Z,14.30
2022-08-17T00:03:13.486Z,14.40
2022-08-17T00:05:49.253Z,14.30
2022-08-17T00:08:19.881Z,14.30
2022-08-17T00:10:48.237Z,14.30
2022-08-17T00:13:38.228Z,14.30
2022-08-17T00:16:13.085Z,14.40
2022-08-17T00:19:01.719Z,14.40
2022-08-17T00:21:59.965Z,14.40
2022-08-17T00:24:18.747Z,14.50
2022-08-17T00:26:47.302Z,14.50
2022-08-17T00:29:19.334Z,14.50
2022-08-17T00:31:48.094Z,14.50
2022-08-17T00:34:15.838Z,14.40
2022-08-17T00:36:43.663Z,14.30
2022-08-17T00:39:11.503Z,14.10
2022-08-17T00:41:56.414Z,14.10
2022-08-17T00:44:28.869Z,14.20
2022-08-17T00:46:59.001Z,14.20
2022-08-17T00:49:26.730Z,14.10
2022-08-17T00:52:04.522Z,14.10
2022-08-17T00:54:42.983Z,14.20
2022-08-17T00:57:17.274Z,14.20
2022-08-17T00:59:51.133Z,14.20
2022-08-17T01:02:43.145Z,14.20
2022-08-17T01:05:19.499Z,14.20
2022-08-17T01:07:53.065Z,14.20
2022-08-17T01:10:58.345Z,14.20
2022-08-17T01:13:18.812Z,14.20
2022-08-17T01:16:00.303Z,14.20
2022-08-17T01:18:28.558Z,14.20
2022-08-17T01:20:58.797Z,14.20
2022-08-17T01:23:28.924Z,14.00
2022-08-17T01:26:02.214Z,14.00
2022-08-17T01:28:55.058Z,14.00
2022-08-17T01:31:21.545Z,14.00
2022-08-17T01:33:49.218Z,14.00
2022-08-17T01:36:17.148Z,13.90
2022-08-17T01:38:44.876Z,13.90
2022-08-17T01:41:16.539Z,13.90
2022-08-17T01:43:53.949Z,13.70
2022-08-17T01:46:27.062Z,13.70
2022-08-17T01:48:56.553Z,13.60
2022-08-17T01:51:28.060Z,13.50
2022-08-17T01:53:58.941Z,13.50
2022-08-17T01:56:29.893Z,13.60
2022-08-17T01:58:57.838Z,13.70
2022-08-17T02:01:31.652Z,13.60
2022-08-17T02:04:01.315Z,13.70
2022-08-17T02:06:52.798Z,13.60
2022-08-17T02:09:25.721Z,13.60
2022-08-17T02:11:56.565Z,13.60
2022-08-17T02:14:24.944Z,13.60
2022-08-17T02:16:53.556Z,13.60
2022-08-17T02:19:22.064Z,13.70
2022-08-17T02:21:51.768Z,13.80
2022-08-17T02:24:59.733Z,13.80
2022-08-17T02:27:13.296Z,13.80
2022-08-17T02:29:41.027Z,13.80
2022-08-17T02:32:27.268Z,13.80
2022-08-17T02:35:00.149Z,13.60
2022-08-17T02:37:29.954Z,13.60
2022-08-17T02:39:59.264Z,13.70
2022-08-17T02:42:33.995Z,13.60
2022-08-17T02:45:04.213Z,13.60
2022-08-17T02:47:32.419Z,13.60
2022-08-17T02:50:00.248Z,13.70
2022-08-17T02:52:43.191Z,13.70
2022-08-17T02:55:24.007Z,13.70
2022-08-17T02:57:52.449Z,13.60
2022-08-17T03:00:34.262Z,13.50
2022-08-17T03:03:04.207Z,13.50
2022-08-17T03:05:34.696Z,13.40
2022-08-17T03:08:03.378Z,13.40
2022-08-17T03:10:31.249Z,13.30
2022-08-17T03:12:59.775Z,13.30
2022-08-17T03:15:30.718Z,13.30
2022-08-17T03:17:59.387Z,13.30
2022-08-17T03:20:28.888Z,13.20
2022-08-17T03:23:02.818Z,13.20
2022-08-17T03:25:37.992Z,13.30
2022-08-17T03:28:07.253Z,13.40
2022-08-17T03:30:35.789Z,13.40
2022-08-17T03:33:06.539Z,13.40
2022-08-17T03:35:36.616Z,13.40
2022-08-17T03:38:05.030Z,13.30
2022-08-17T03:40:55.638Z,13.30
2022-08-17T03:43:22.476Z,13.20
2022-08-17T03:46:11.007Z,13.20
2022-08-17T03:49:15.878Z,13.20
2022-08-17T03:52:02.454Z,13.20
2022-08-17T03:54:48.554Z,13.30
2022-08-17T03:57:16.839Z,13.30
2022-08-17T03:59:45.291Z,13.30
2022-08-17T04:02:27.225Z,13.30
2022-08-17T04:04:55.042Z,13.30
2022-08-17T04:07:25.706Z,13.40
2022-08-17T04:09:54.101Z,13.40
2022-08-17T04:12:23.757Z,13.30
2022-08-17T04:14:55.069Z,13.30
2022-08-17T04:17:28.546Z,13.30
2022-08-17T04:19:56.736Z,13.40
2022-08-17T04:22:30.205Z,13.40
2022-08-17T04:25:10.185Z,13.40
2022-08-17T04:27:38.300Z,13.40
2022-08-17T04:30:10.603Z,13.50
2022-08-17T04:33:05.406Z,13.50
2022-08-17T04:35:50.218Z,13.50
2022-08-17T04:38:20.803Z,13.50
2022-08-17T04:41:08.113Z,13.40
2022-08-17T04:43:37.621Z,13.40
2022-08-17T04:46:16.629Z,13.40
2022-08-17T04:48:47.906Z,13.30
2022-08-17T04:51:24.319Z,13.40
2022-08-17T04:53:56.340Z,13.40
2022-08-17T04:56:26.316Z,13.50
2022-08-17T04:58:57.380Z,13.50
2022-08-17T05:01:28.317Z,13.60
2022-08-17T05:03:59.273Z,13.60
2022-08-17T05:06:28.538Z,13.50
2022-08-17T05:08:57.635Z,13.60
2022-08-17T05:11:27.375Z,13.50
2022-08-17T05:13:57.137Z,13.60
2022-08-17T05:16:29.231Z,13.50
2022-08-17T05:18:59.250Z,13.60
2022-08-17T05:21:27.754Z,13.50
2022-08-17T05:23:58.595Z,13.60
2022-08-17T05:26:28.782Z,13.70
2022-08-17T05:29:00.675Z,13.90
2022-08-17T05:31:31.535Z,13.90
2022-08-17T05:33:59.661Z,14.10
2022-08-17T05:36:43.659Z,14.20
2022-08-17T05:39:15.720Z,14.30
2022-08-17T05:41:47.792Z,14.30
2022-08-17T05:44:16.131Z,14.20
2022-08-17T05:46:49.377Z,14.30
2022-08-17T05:49:24.962Z,14.50
2022-08-17T05:51:52.589Z,14.60
2022-08-17T05:54:26.617Z,14.70
2022-08-17T05:57:12.901Z,14.80
2022-08-17T06:00:07.313Z,14.90
2022-08-17T06:03:12.777Z,14.90
2022-08-17T06:05:50.584Z,14.80
2022-08-17T06:08:38.406Z,14.80
2022-08-17T06:11:32.557Z,14.90
2022-08-17T06:14:11.187Z,15.10
2022-08-17T06:16:43.667Z,15.10
2022-08-17T06:19:19.696Z,15.10
2022-08-17T06:21:52.395Z,15.00
2022-08-17T06:24:42.932Z,15.00
2022-08-17T06:27:53.314Z,15.00
2022-08-17T06:30:25.975Z,15.30
2022-08-17T06:32:59.579Z,15.50
2022-08-17T06:35:56.964Z,15.70
2022-08-17T06:38:41.590Z,15.70
2022-08-17T06:41:18.533Z,15.60
2022-08-17T06:43:49.146Z,15.60
2022-08-17T06:46:50.381Z,15.60
2022-08-17T06:49:33.252Z,15.70
2022-08-17T06:52:06.998Z,15.90
2022-08-17T06:54:38.498Z,16.10
2022-08-17T06:57:22.252Z,16.10
2022-08-17T06:59:56.719Z,16.00
2022-08-17T07:02:51.610Z,15.90
2022-08-17T07:05:46.850Z,16.00
2022-08-17T07:08:35.106Z,16.20
2022-08-17T07:11:14.222Z,16.30
2022-08-17T07:13:51.142Z,16.60
2022-08-17T07:16:42.746Z,16.60
2022-08-17T07:19:11.036Z,16.70
2022-08-17T07:22:08.981Z,16.70
2022-08-17T07:24:58.516Z,16.80
2022-08-17T07:27:31.524Z,16.90
2022-08-17T07:30:10.930Z,17.00
2022-08-17T07:32:46.980Z,17.20
2022-08-17T07:35:17.813Z,17.30
2022-08-17T07:37:55.689Z,17.30
2022-08-17T07:40:30.731Z,17.40
2022-08-17T07:43:02.635Z,17.60
2022-08-17T07:45:53.439Z,17.60
2022-08-17T07:48:24.991Z,17.60
2022-08-17T07:50:55.682Z,17.90
2022-08-17T07:53:25.829Z,18.00
2022-08-17T07:55:56.174Z,18.10
2022-08-17T07:58:24.281Z,18.20
2022-08-17T08:01:21.535Z,18.30
2022-08-17T08:03:52.514Z,18.50
2022-08-17T08:06:24.170Z,18.60
2022-08-17T08:08:55.006Z,18.70
2022-08-17T08:11:31.048Z,18.80
2022-08-17T08:14:22.518Z,18.90
2022-08-17T08:17:05.675Z,19.20
2022-08-17T08:19:34.112Z,19.30
2022-08-17T08:22:12.802Z,19.40
2022-08-17T08:24:56.562Z,19.50
2022-08-17T08:27:42.259Z,19.60
2022-08-17T08:30:14.489Z,19.70
2022-08-17T08:33:08.551Z,19.80
2022-08-17T08:35:54.046Z,20.00
2022-08-17T08:38:34.734Z,20.10
2022-08-17T08:41:11.404Z,20.30
2022-08-17T08:44:59.739Z,20.40
2022-08-17T08:47:20.563Z,20.70
2022-08-17T08:50:37.209Z,20.80
2022-08-17T08:53:24.498Z,21.00
2022-08-17T08:55:59.109Z,21.40
2022-08-17T08:58:41.236Z,21.70
2022-08-17T09:01:28.867Z,22.00
2022-08-17T09:04:24.674Z,22.30
2022-08-17T09:07:08.420Z,22.50
2022-08-17T09:09:45.395Z,22.80
2022-08-17T09:12:50.843Z,23.00
2022-08-17T09:15:25.776Z,23.10
2022-08-17T09:18:59.171Z,23.30
2022-08-17T09:21:26.869Z,23.40
2022-08-17T09:24:43.609Z,23.50
2022-08-17T09:27:11.267Z,23.70
2022-08-17T09:29:48.588Z,23.90
2022-08-17T09:32:25.199Z,23.80
2022-08-17T09:35:00.333Z,24.00
2022-08-17T09:37:43.290Z,24.50
2022-08-17T09:40:33.002Z,24.80
2022-08-17T09:43:52.236Z,25.00
2022-08-17T09:46:22.051Z,25.60
2022-08-17T09:49:09.928Z,26.10
2022-08-17T09:51:48.829Z,26.50
2022-08-17T09:54:41.521Z,26.20
2022-08-17T09:57:30.516Z,26.10
2022-08-17T10:00:19.121Z,26.00
2022-08-17T10:03:12.121Z,26.00
2022-08-17T10:05:46.998Z,26.10
2022-08-17T10:08:21.726Z,26.00
2022-08-17T10:11:13.611Z,26.00
2022-08-17T10:13:54.699Z,26.10
2022-08-17T10:16:49.329Z,25.90
2022-08-17T10:19:22.295Z,26.00
2022-08-17T10:22:32.738Z,26.00
2022-08-17T10:25:24.171Z,26.20
2022-08-17T10:28:04.505Z,26.30
2022-08-17T10:30:36.162Z,26.40
2022-08-17T10:33:14.447Z,26.50
2022-08-17T10:36:01.516Z,26.50
2022-08-17T10:38:46.089Z,26.50
2022-08-17T10:41:39.664Z,26.50
2022-08-17T10:44:40.129Z,26.40
2022-08-17T10:47:14.591Z,26.80
2022-08-17T10:49:49.797Z,27.00
2022-08-17T10:52:20.526Z,27.10
2022-08-17T10:54:58.170Z,27.40
2022-08-17T10:57:29.692Z,27.80
2022-08-17T10:59:59.323Z,27.90
2022-08-17T11:02:40.779Z,28.00
2022-08-17T11:05:28.648Z,28.60
2022-08-17T11:08:14.554Z,29.20
2022-08-17T11:11:01.429Z,29.80
2022-08-17T11:13:45.106Z,29.60
2022-08-17T11:16:50.495Z,30.20
2022-08-17T11:19:36.918Z,31.10
2022-08-17T11:22:17.829Z,31.80
2022-08-17T11:24:48.314Z,32.20
2022-08-17T11:27:27.426Z,32.20
2022-08-17T11:30:02.927Z,32.20
2022-08-17T11:32:54.850Z,31.60
2022-08-17T11:35:22.927Z,31.20
2022-08-17T11:38:16.346Z,31.10
2022-08-17T11:41:19.934Z,31.20
2022-08-17T11:44:15.675Z,30.60
2022-08-17T11:47:15.115Z,31.40
2022-08-17T11:50:29.664Z,30.90
2022-08-17T11:52:57.504Z,30.70
2022-08-17T11:55:40.739Z,31.10
2022-08-17T11:58:37.510Z,31.90
2022-08-17T12:01:07.007Z,32.20
2022-08-17T12:03:34.743Z,32.50
2022-08-17T12:06:17.671Z,32.60
2022-08-17T12:08:53.735Z,33.10
2022-08-17T12:11:58.598Z,33.60
2022-08-17T12:15:05.951Z,33.90
2022-08-17T12:17:40.194Z,34.20
2022-08-17T12:20:33.853Z,34.50
2022-08-17T12:23:21.529Z,34.50
2022-08-17T12:26:04.880Z,34.50
2022-08-17T12:28:44.439Z,33.90
2022-08-17T12:31:21.966Z,32.70
2022-08-17T12:33:51.948Z,32.50
2022-08-17T12:36:24.862Z,31.90
2022-08-17T12:39:12.878Z,30.90
2022-08-17T12:41:45.260Z,30.00
2022-08-17T12:44:43.010Z,29.60
2022-08-17T12:47:22.694Z,29.30
2022-08-17T12:49:55.320Z,28.90
2022-08-17T12:52:29.458Z,28.70
2022-08-17T12:55:18.080Z,28.60
2022-08-17T12:57:49.610Z,28.00
2022-08-17T13:00:32.183Z,28.00
2022-08-17T13:03:09.167Z,28.10
2022-08-17T13:05:57.585Z,28.00
2022-08-17T13:08:31.220Z,27.80
2022-08-17T13:11:01.695Z,27.90
2022-08-17T13:13:33.150Z,28.00
2022-08-17T13:16:14.632Z,27.70
2022-08-17T13:19:08.702Z,27.60
2022-08-17T13:21:38.228Z,27.70
2022-08-17T13:24:14.694Z,27.70
2022-08-17T13:27:15.402Z,27.70
2022-08-17T13:29:51.172Z,27.50
2022-08-17T13:32:39.952Z,27.20
2022-08-17T13:35:39.366Z,27.00
2022-08-17T13:38:16.597Z,27.00
2022-08-17T13:40:50.374Z,27.20
2022-08-17T13:43:38.044Z,27.30
2022-08-17T13:46:22.392Z,27.40
2022-08-17T13:49:06.623Z,27.50
2022-08-17T13:51:44.383Z,27.70
2022-08-17T13:54:39.989Z,27.60
2022-08-17T13:57:16.551Z,27.30
2022-08-17T13:59:53.106Z,27.40
2022-08-17T14:02:27.644Z,27.50
2022-08-17T14:04:59.008Z,27.60
2022-08-17T14:07:31.559Z,27.60
2022-08-17T14:10:04.134Z,27.40
2022-08-17T14:12:34.671Z,27.30
2022-08-17T14:15:02.558Z,27.20
2022-08-17T14:17:36.563Z,27.10
2022-08-17T14:20:10.394Z,27.20
2022-08-17T14:22:43.419Z,27.40
2022-08-17T14:25:13.414Z,27.30
2022-08-17T14:27:43.498Z,27.40
2022-08-17T14:30:29.137Z,27.20
2022-08-17T14:32:59.225Z,27.20
2022-08-17T14:35:28.309Z,26.90
2022-08-17T14:37:57.365Z,26.60
2022-08-17T14:40:25.614Z,26.50
2022-08-17T14:42:55.959Z,26.30
2022-08-17T14:45:27.083Z,26.10
2022-08-17T14:48:07.774Z,26.00
2022-08-17T14:50:38.483Z,25.80
2022-08-17T14:53:08.343Z,25.70
2022-08-17T14:55:40.056Z,25.60
2022-08-17T14:58:09.187Z,25.40
2022-08-17T15:00:37.914Z,25.40
2022-08-17T15:03:05.812Z,25.60
2022-08-17T15:05:36.733Z,25.80
2022-08-17T15:08:05.703Z,26.20
2022-08-17T15:10:33.990Z,26.60
2022-08-17T15:13:03.910Z,26.70
2022-08-17T15:15:31.877Z,26.70
2022-08-17T15:18:00.176Z,26.60
2022-08-17T15:20:40.979Z,26.50
2022-08-17T15:23:15.684Z,26.60
2022-08-17T15:25:50.585Z,26.60
2022-08-17T15:28:18.729Z,26.40
2022-08-17T15:30:46.628Z,26.30
2022-08-17T15:33:19.603Z,26.10
2022-08-17T15:35:50.669Z,25.80
2022-08-17T15:38:18.821Z,25.50
2022-08-17T15:40:49.658Z,25.30
2022-08-17T15:43:27.886Z,25.00
2022-08-17T15:46:00.816Z,24.80
2022-08-17T15:48:43.923Z,24.60
2022-08-17T15:51:16.163Z,24.40
2022-08-17T15:53:46.666Z,24.30
2022-08-17T15:56:15.522Z,24.10
2022-08-17T15:58:45.035Z,24.10
2022-08-17T16:01:17.046Z,24.10
2022-08-17T16:04:03.834Z,24.00
2022-08-17T16:06:35.109Z,24.00
2022-08-17T16:09:02.870Z,24.10
2022-08-17T16:11:30.659Z,24.30
2022-08-17T16:13:58.427Z,24.40
2022-08-17T16:16:29.169Z,24.50
2022-08-17T16:18:59.228Z,24.40
2022-08-17T16:21:27.950Z,24.30
2022-08-17T16:24:02.133Z,24.30
2022-08-17T16:26:31.434Z,24.20
2022-08-17T16:29:00.972Z,24.20
2022-08-17T16:31:29.501Z,24.20
2022-08-17T16:34:15.663Z,24.10
2022-08-17T16:36:55.779Z,24.00
2022-08-17T16:39:27.023Z,24.00
2022-08-17T16:41:56.277Z,24.00
2022-08-17T16:44:31.035Z,23.90
2022-08-17T16:47:01.493Z,24.00
2022-08-17T16:49:37.439Z,24.00
2022-08-17T16:52:10.824Z,24.00
2022-08-17T16:54:44.441Z,24.00
2022-08-17T16:57:13.859Z,24.00
2022-08-17T16:59:47.997Z,23.90
2022-08-17T17:02:31.524Z,23.90
2022-08-17T17:05:20.940Z,23.80
2022-08-17T17:07:58.919Z,23.70
2022-08-17T17:10:55.988Z,23.70
2022-08-17T17:13:39.013Z,23.60
2022-08-17T17:16:37.766Z,23.50
2022-08-17T17:19:12.183Z,23.50
2022-08-17T17:22:05.142Z,23.30
2022-08-17T17:24:49.994Z,23.10
2022-08-17T17:27:32.429Z,22.90
2022-08-17T17:30:24.466Z,22.70
2022-08-17T17:33:03.740Z,22.50
2022-08-17T17:35:48.639Z,22.40
2022-08-17T17:38:28.965Z,22.20
2022-08-17T17:41:04.589Z,22.10
2022-08-17T17:43:39.654Z,22.00
2022-08-17T17:46:30.821Z,21.90
2022-08-17T17:48:59.298Z,21.70
2022-08-17T17:52:07.196Z,21.60
2022-08-17T17:58:13.474Z,21.40
2022-08-17T18:01:05.219Z,21.10
2022-08-17T18:03:59.442Z,21.10
2022-08-17T18:06:49.579Z,20.90
2022-08-17T18:09:51.750Z,20.80
2022-08-17T18:13:10.999Z,20.70
2022-08-17T18:15:51.740Z,20.50
2022-08-17T18:18:39.059Z,20.40
2022-08-17T18:21:15.930Z,20.30
2022-08-17T18:23:54.642Z,20.20
2022-08-17T18:26:56.887Z,20.10
2022-08-17T18:29:44.470Z,20.00
2022-08-17T18:32:33.618Z,19.90
2022-08-17T18:35:10.488Z,19.80
2022-08-17T18:37:41.184Z,19.70
2022-08-17T18:40:35.080Z,19.70
2022-08-17T18:43:11.523Z,19.50
2022-08-17T18:45:42.133Z,19.40
2022-08-17T18:48:23.011Z,19.30
2022-08-17T18:50:53.580Z,19.30
2022-08-17T18:53:34.288Z,19.20
2022-08-17T18:56:23.681Z,19.20
2022-08-17T18:59:14.780Z,19.10
2022-08-17T19:02:23.182Z,18.90
2022-08-17T19:05:08.299Z,18.90
2022-08-17T19:07:46.560Z,18.70
2022-08-17T19:10:28.853Z,18.60
2022-08-17T19:13:13.848Z,18.60
2022-08-17T19:16:14.149Z,18.40
2022-08-17T19:19:25.067Z,18.40
2022-08-17T19:21:57.312Z,18.40
2022-08-17T19:24:31.425Z,18.30
2022-08-17T19:27:11.196Z,18.30
2022-08-17T19:29:54.517Z,18.30
2022-08-17T19:32:26.536Z,18.20
2022-08-17T19:34:55.643Z,18.10
2022-08-17T19:37:44.708Z,18.00
2022-08-17T19:40:24.481Z,17.90
2022-08-17T19:43:09.875Z,17.90
2022-08-17T19:45:48.229Z,17.90
2022-08-17T19:48:55.307Z,17.90
2022-08-17T19:51:41.077Z,17.80
2022-08-17T19:54:35.137Z,17.80
2022-08-17T19:57:20.873Z,17.80
2022-08-17T20:00:07.076Z,17.80
2022-08-17T20:03:00.099Z,17.80
2022-08-17T20:06:15.108Z,17.70
2022-08-17T20:09:03.520Z,17.70
2022-08-17T20:11:48.120Z,17.60
2022-08-17T20:14:22.098Z,17.60
2022-08-17T20:16:50.094Z,17.50
2022-08-17T20:19:40.113Z,17.50
2022-08-17T20:22:15.035Z,17.50
2022-08-17T20:24:42.750Z,17.50
2022-08-17T20:27:34.590Z,17.40
2022-08-17T20:30:33.466Z,17.40
2022-08-17T20:33:02.840Z,17.40
2022-08-17T20:35:34.150Z,17.30
2022-08-17T20:38:11.241Z,17.20
2022-08-17T20:40:39.054Z,17.20
2022-08-17T20:43:34.777Z,17.20
2022-08-17T20:46:37.782Z,17.20
2022-08-17T20:49:08.763Z,17.10
2022-08-17T20:52:01.778Z,17.10
2022-08-17T20:54:54.808Z,17.10
2022-08-17T20:57:34.414Z,17.10
2022-08-17T21:00:32.360Z,17.00
2022-08-17T21:03:22.744Z,17.00
2022-08-17T21:06:15.341Z,17.00
2022-08-17T21:09:16.638Z,17.00
2022-08-17T21:12:03.755Z,17.00
2022-08-17T21:14:36.738Z,17.00
2022-08-17T21:17:19.557Z,17.00
2022-08-17T21:20:21.206Z,17.00
2022-08-17T21:22:58.069Z,17.10
2022-08-17T21:25:26.079Z,17.10
2022-08-17T21:28:21.885Z,17.00
2022-08-17T21:31:06.999Z,17.00
2022-08-17T21:33:40.424Z,17.00
2022-08-17T21:36:14.489Z,17.00
2022-08-17T21:39:03.695Z,16.90
2022-08-17T21:41:35.213Z,16.70
2022-08-17T21:44:11.802Z,16.70
2022-08-17T21:46:46.505Z,16.80
2022-08-17T21:49:17.903Z,16.80
2022-08-17T21:51:54.252Z,16.80
2022-08-17T21:54:32.122Z,16.90
2022-08-17T21:57:03.135Z,16.90
2022-08-17T21:59:33.402Z,16.80
2022-08-17T22:02:05.733Z,16.70
2022-08-17T22:04:40.113Z,16.70
2022-08-17T22:07:11.550Z,16.80
2022-08-17T22:09:48.562Z,16.70
2022-08-17T22:12:21.814Z,16.70
2022-08-17T22:15:07.493Z,16.60
2022-08-17T22:17:40.278Z,16.70
2022-08-17T22:20:18.866Z,16.60
2022-08-17T22:23:08.319Z,16.60
2022-08-17T22:25:56.325Z,16.70
2022-08-17T22:28:53.467Z,16.70
2022-08-17T22:31:27.850Z,16.70
2022-08-17T22:34:01.214Z,16.80
2022-08-17T22:36:33.638Z,16.80
2022-08-17T22:39:23.154Z,16.90
2022-08-17T22:41:52.131Z,16.90
2022-08-17T22:44:44.897Z,16.80
2022-08-17T22:47:16.336Z,16.70
2022-08-17T22:49:57.993Z,16.70
2022-08-17T22:53:00.689Z,16.80
2022-08-17T22:55:50.127Z,16.70
2022-08-17T22:58:42.668Z,16.90
2022-08-17T23:01:28.523Z,16.90
2022-08-17T23:04:01.564Z,16.90
2022-08-17T23:06:34.090Z,16.90
2022-08-17T23:09:04.416Z,17.00
2022-08-17T23:11:58.567Z,16.90
2022-08-17T23:14:31.770Z,16.90
2022-08-17T23:16:59.842Z,16.90
2022-08-17T23:19:31.776Z,16.80
2022-08-17T23:22:04.324Z,16.80
2022-08-17T23:24:35.687Z,16.80
2022-08-17T23:27:07.788Z,16.80
2022-08-17T23:29:39.400Z,16.90
2022-08-17T23:32:09.917Z,16.90
2022-08-17T23:34:40.602Z,16.80
2022-08-17T23:37:09.717Z,16.70
2022-08-17T23:39:37.941Z,16.70
2022-08-17T23:42:09.027Z,16.80
2022-08-17T23:44:38.825Z,16.80
2022-08-17T23:47:09.191Z,16.80
2022-08-17T23:49:37.571Z,16.70
2022-08-17T23:52:09.937Z,16.70
2022-08-17T23:54:43.896Z,16.70
2022-08-17T23:57:15.414Z,16.60
2022-08-17T23:59:44.081Z,16.60
